sensor_id;sensor_type;location;lat;lon;timestamp;noise_LAeq;noise_LA_min;noise_LA_max;noise_LA01;noise_LA95
66888;Laerm;67239;51.680;5.976;2023-05-10T00:00:46;39.60;36.50;52.61;;
66888;Laerm;67239;51.680;5.976;2023-05-10T00:03:13;53.68;35.86;70.97;;
66888;Laerm;67239;51.680;5.976;2023-05-10T00:05:40;55.24;35.57;71.94;;
66888;Laerm;67239;51.680;5.976;2023-05-10T00:08:07;38.29;35.36;54.31;;
66888;Laerm;67239;51.680;5.976;2023-05-10T00:10:34;37.68;34.57;52.91;;
66888;Laerm;67239;51.680;5.976;2023-05-10T00:13:02;37.33;34.06;53.86;;
66888;Laerm;67239;51.680;5.976;2023-05-10T00:15:29;47.77;34.13;68.61;;
66888;Laerm;67239;51.680;5.976;2023-05-10T00:17:57;55.97;34.39;75.81;;
66888;Laerm;67239;51.680;5.976;2023-05-10T00:20:24;37.22;34.22;51.90;;
66888;Laerm;67239;51.680;5.976;2023-05-10T00:22:51;37.71;34.57;51.11;;
66888;Laerm;67239;51.680;5.976;2023-05-10T00:25:18;39.72;34.04;61.98;;
66888;Laerm;67239;51.680;5.976;2023-05-10T00:27:45;62.87;33.87;78.75;;
66888;Laerm;67239;51.680;5.976;2023-05-10T00:30:13;36.32;33.70;51.10;;
66888;Laerm;67239;51.680;5.976;2023-05-10T00:32:40;36.93;33.80;48.94;;
66888;Laerm;67239;51.680;5.976;2023-05-10T00:35:08;36.65;33.71;52.47;;
66888;Laerm;67239;51.680;5.976;2023-05-10T00:37:35;58.07;33.74;77.27;;
66888;Laerm;67239;51.680;5.976;2023-05-10T00:40:02;42.09;32.77;58.37;;
66888;Laerm;67239;51.680;5.976;2023-05-10T00:42:29;36.16;33.17;48.56;;
66888;Laerm;67239;51.680;5.976;2023-05-10T00:44:56;35.85;33.10;46.51;;
66888;Laerm;67239;51.680;5.976;2023-05-10T00:47:24;36.00;33.22;46.25;;
66888;Laerm;67239;51.680;5.976;2023-05-10T00:49:52;36.88;33.90;47.12;;
66888;Laerm;67239;51.680;5.976;2023-05-10T00:52:19;57.87;34.64;76.05;;
66888;Laerm;67239;51.680;5.976;2023-05-10T00:54:47;43.10;33.03;68.36;;
66888;Laerm;67239;51.680;5.976;2023-05-10T00:57:14;38.73;34.09;60.12;;
66888;Laerm;67239;51.680;5.976;2023-05-10T00:59:41;38.97;33.70;61.70;;
66888;Laerm;67239;51.680;5.976;2023-05-10T01:02:08;37.96;33.68;57.35;;
66888;Laerm;67239;51.680;5.976;2023-05-10T01:04:36;56.03;33.75;75.44;;
66888;Laerm;67239;51.680;5.976;2023-05-10T01:07:04;39.15;32.78;60.62;;
66888;Laerm;67239;51.680;5.976;2023-05-10T01:09:32;47.18;33.58;66.36;;
66888;Laerm;67239;51.680;5.976;2023-05-10T01:12:01;45.62;33.83;66.84;;
66888;Laerm;67239;51.680;5.976;2023-05-10T01:14:29;43.61;33.22;62.99;;
66888;Laerm;67239;51.680;5.976;2023-05-10T01:16:57;41.57;33.20;62.30;;
66888;Laerm;67239;51.680;5.976;2023-05-10T01:19:27;37.74;33.14;46.80;;
66888;Laerm;67239;51.680;5.976;2023-05-10T01:22:43;61.85;34.49;81.20;;
66888;Laerm;67239;51.680;5.976;2023-05-10T01:33:58;35.17;32.70;51.33;;
66888;Laerm;67239;51.680;5.976;2023-05-10T01:36:45;35.64;32.46;51.20;;
66888;Laerm;67239;51.680;5.976;2023-05-10T01:39:32;36.15;33.22;42.25;;
66888;Laerm;67239;51.680;5.976;2023-05-10T01:42:23;36.02;32.97;43.11;;
66888;Laerm;67239;51.680;5.976;2023-05-10T01:47:46;36.91;33.88;41.66;;
66888;Laerm;67239;51.680;5.976;2023-05-10T01:50:27;38.80;33.97;48.95;;
66888;Laerm;67239;51.680;5.976;2023-05-10T01:52:59;36.19;33.54;43.44;;
66888;Laerm;67239;51.680;5.976;2023-05-10T01:55:35;37.96;33.56;60.45;;
66888;Laerm;67239;51.680;5.976;2023-05-10T01:58:10;36.97;33.46;44.85;;
66888;Laerm;67239;51.680;5.976;2023-05-10T02:00:44;39.07;34.16;62.07;;
66888;Laerm;67239;51.680;5.976;2023-05-10T02:03:14;40.90;34.63;64.92;;
66888;Laerm;67239;51.680;5.976;2023-05-10T02:05:44;46.29;34.60;65.81;;
66888;Laerm;67239;51.680;5.976;2023-05-10T02:08:14;59.29;34.61;78.80;;
66888;Laerm;67239;51.680;5.976;2023-05-10T02:10:46;47.53;33.69;66.58;;
66888;Laerm;67239;51.680;5.976;2023-05-10T02:13:17;48.72;33.87;67.73;;
66888;Laerm;67239;51.680;5.976;2023-05-10T02:15:48;54.25;34.22;69.70;;
66888;Laerm;67239;51.680;5.976;2023-05-10T02:18:18;47.38;34.94;66.86;;
66888;Laerm;67239;51.680;5.976;2023-05-10T02:20:46;46.76;34.52;64.30;;
66888;Laerm;67239;51.680;5.976;2023-05-10T02:23:17;42.46;34.41;66.59;;
66888;Laerm;67239;51.680;5.976;2023-05-10T02:25:47;59.63;34.39;77.43;;
66888;Laerm;67239;51.680;5.976;2023-05-10T02:28:16;41.29;34.63;61.10;;
66888;Laerm;67239;51.680;5.976;2023-05-10T02:30:46;37.37;34.84;47.78;;
66888;Laerm;67239;51.680;5.976;2023-05-10T02:33:14;61.27;34.87;78.29;;
66888;Laerm;67239;51.680;5.976;2023-05-10T02:35:42;61.98;34.13;81.73;;
66888;Laerm;67239;51.680;5.976;2023-05-10T02:38:11;46.97;34.30;68.55;;
66888;Laerm;67239;51.680;5.976;2023-05-10T02:40:40;52.81;34.29;77.17;;
66888;Laerm;67239;51.680;5.976;2023-05-10T02:43:12;42.97;35.53;64.38;;
66888;Laerm;67239;51.680;5.976;2023-05-10T02:45:42;61.59;34.49;80.91;;
66888;Laerm;67239;51.680;5.976;2023-05-10T02:48:10;50.16;33.43;70.29;;
66888;Laerm;67239;51.680;5.976;2023-05-10T02:50:44;47.34;33.66;66.55;;
66888;Laerm;67239;51.680;5.976;2023-05-10T02:53:18;54.87;34.01;69.78;;
66888;Laerm;67239;51.680;5.976;2023-05-10T02:55:52;59.37;34.56;77.32;;
66888;Laerm;67239;51.680;5.976;2023-05-10T02:58:23;65.95;35.01;80.66;;
66888;Laerm;67239;51.680;5.976;2023-05-10T03:00:51;60.52;34.80;78.26;;
66888;Laerm;67239;51.680;5.976;2023-05-10T03:03:19;53.20;34.61;69.15;;
66888;Laerm;67239;51.680;5.976;2023-05-10T03:05:49;65.49;36.90;80.65;;
66888;Laerm;67239;51.680;5.976;2023-05-10T03:08:16;60.53;36.68;75.26;;
66888;Laerm;67239;51.680;5.976;2023-05-10T03:11:21;53.28;36.07;69.93;;
66888;Laerm;67239;51.680;5.976;2023-05-10T03:14:21;53.16;37.22;70.01;;
66888;Laerm;67239;51.680;5.976;2023-05-10T03:17:10;59.93;38.10;79.33;;
66888;Laerm;67239;51.680;5.976;2023-05-10T03:19:57;66.47;39.24;86.43;;
66888;Laerm;67239;51.680;5.976;2023-05-10T03:22:37;58.84;38.29;75.51;;
66888;Laerm;67239;51.680;5.976;2023-05-10T03:25:08;63.95;38.41;78.60;;
66888;Laerm;67239;51.680;5.976;2023-05-10T03:27:42;54.29;38.10;69.86;;
66888;Laerm;67239;51.680;5.976;2023-05-10T03:30:12;59.02;38.79;74.27;;
66888;Laerm;67239;51.680;5.976;2023-05-10T03:32:41;63.45;39.11;78.47;;
66888;Laerm;67239;51.680;5.976;2023-05-10T03:35:12;64.17;39.69;80.19;;
66888;Laerm;67239;51.680;5.976;2023-05-10T03:37:40;66.68;42.79;81.89;;
66888;Laerm;67239;51.680;5.976;2023-05-10T03:40:08;62.86;41.61;75.20;;
66888;Laerm;67239;51.680;5.976;2023-05-10T03:42:38;67.22;40.43;80.44;;
66888;Laerm;67239;51.680;5.976;2023-05-10T03:45:06;70.43;40.90;86.98;;
66888;Laerm;67239;51.680;5.976;2023-05-10T03:47:33;59.94;40.61;77.78;;
66888;Laerm;67239;51.680;5.976;2023-05-10T03:50:01;65.00;39.96;84.87;;
66888;Laerm;67239;51.680;5.976;2023-05-10T03:52:29;66.73;39.34;80.14;;
66888;Laerm;67239;51.680;5.976;2023-05-10T03:54:56;66.58;39.15;80.56;;
66888;Laerm;67239;51.680;5.976;2023-05-10T03:57:23;67.65;37.49;86.52;;
66888;Laerm;67239;51.680;5.976;2023-05-10T03:59:51;65.50;39.46;78.27;;
66888;Laerm;67239;51.680;5.976;2023-05-10T04:02:18;66.12;39.14;80.25;;
66888;Laerm;67239;51.680;5.976;2023-05-10T04:04:45;70.37;42.89;82.69;;
66888;Laerm;67239;51.680;5.976;2023-05-10T04:07:12;62.04;40.84;76.72;;
66888;Laerm;67239;51.680;5.976;2023-05-10T04:09:39;65.89;41.25;79.55;;
66888;Laerm;67239;51.680;5.976;2023-05-10T04:12:06;67.81;43.85;82.07;;
66888;Laerm;67239;51.680;5.976;2023-05-10T04:14:36;65.74;40.48;81.11;;
66888;Laerm;67239;51.680;5.976;2023-05-10T04:17:04;67.10;40.40;79.23;;
66888;Laerm;67239;51.680;5.976;2023-05-10T04:19:31;66.16;40.81;82.35;;
66888;Laerm;67239;51.680;5.976;2023-05-10T04:21:58;70.17;42.12;83.26;;
66888;Laerm;67239;51.680;5.976;2023-05-10T04:24:26;64.91;40.40;78.87;;
66888;Laerm;67239;51.680;5.976;2023-05-10T04:26:54;60.08;39.61;76.36;;
66888;Laerm;67239;51.680;5.976;2023-05-10T04:29:23;66.60;41.97;78.74;;
66888;Laerm;67239;51.680;5.976;2023-05-10T04:31:50;67.63;42.20;81.43;;
66888;Laerm;67239;51.680;5.976;2023-05-10T04:34:17;69.14;43.40;81.17;;
66888;Laerm;67239;51.680;5.976;2023-05-10T04:36:51;68.45;44.84;82.42;;
66888;Laerm;67239;51.680;5.976;2023-05-10T04:39:18;68.47;41.97;83.41;;
66888;Laerm;67239;51.680;5.976;2023-05-10T04:41:48;68.97;44.06;85.09;;
66888;Laerm;67239;51.680;5.976;2023-05-10T04:44:19;67.42;46.71;80.98;;
66888;Laerm;67239;51.680;5.976;2023-05-10T04:46:46;64.45;43.32;77.93;;
66888;Laerm;67239;51.680;5.976;2023-05-10T04:49:14;67.49;46.06;79.74;;
66888;Laerm;67239;51.680;5.976;2023-05-10T04:51:41;68.19;42.90;80.65;;
66888;Laerm;67239;51.680;5.976;2023-05-10T04:54:08;69.24;43.92;83.27;;
66888;Laerm;67239;51.680;5.976;2023-05-10T04:56:35;68.79;43.00;84.94;;
66888;Laerm;67239;51.680;5.976;2023-05-10T04:59:02;68.55;45.79;83.24;;
66888;Laerm;67239;51.680;5.976;2023-05-10T05:01:29;70.23;44.84;81.61;;
66888;Laerm;67239;51.680;5.976;2023-05-10T05:03:56;68.20;44.29;82.39;;
66888;Laerm;67239;51.680;5.976;2023-05-10T05:06:24;64.59;41.81;77.13;;
66888;Laerm;67239;51.680;5.976;2023-05-10T05:08:51;68.92;44.55;81.96;;
66888;Laerm;67239;51.680;5.976;2023-05-10T05:11:18;67.23;47.51;79.99;;
66888;Laerm;67239;51.680;5.976;2023-05-10T05:13:46;69.33;45.78;85.88;;
66888;Laerm;67239;51.680;5.976;2023-05-10T05:16:13;67.28;44.74;79.65;;
66888;Laerm;67239;51.680;5.976;2023-05-10T05:18:40;69.44;45.47;80.96;;
66888;Laerm;67239;51.680;5.976;2023-05-10T05:21:18;66.56;43.34;79.92;;
66888;Laerm;67239;51.680;5.976;2023-05-10T05:23:46;70.03;51.34;83.72;;
66888;Laerm;67239;51.680;5.976;2023-05-10T05:26:13;68.78;48.28;82.36;;
66888;Laerm;67239;51.680;5.976;2023-05-10T05:28:42;69.09;46.22;79.96;;
66888;Laerm;67239;51.680;5.976;2023-05-10T05:31:09;69.11;46.43;80.46;;
66888;Laerm;67239;51.680;5.976;2023-05-10T05:33:36;66.96;45.51;81.11;;
66888;Laerm;67239;51.680;5.976;2023-05-10T05:36:04;69.73;49.26;79.70;;
66888;Laerm;67239;51.680;5.976;2023-05-10T05:38:32;70.99;51.43;82.44;;
66888;Laerm;67239;51.680;5.976;2023-05-10T05:40:59;67.77;45.78;78.41;;
66888;Laerm;67239;51.680;5.976;2023-05-10T05:43:26;67.20;46.10;81.86;;
66888;Laerm;67239;51.680;5.976;2023-05-10T05:45:54;69.46;51.69;81.03;;
66888;Laerm;67239;51.680;5.976;2023-05-10T05:48:22;69.12;50.61;81.61;;
66888;Laerm;67239;51.680;5.976;2023-05-10T05:50:49;67.83;47.69;80.65;;
66888;Laerm;67239;51.680;5.976;2023-05-10T05:53:16;69.93;48.48;83.72;;
66888;Laerm;67239;51.680;5.976;2023-05-10T05:55:57;69.36;45.26;83.11;;
66888;Laerm;67239;51.680;5.976;2023-05-10T05:58:25;69.33;45.63;79.10;;
66888;Laerm;67239;51.680;5.976;2023-05-10T06:00:52;69.58;44.61;84.86;;
66888;Laerm;67239;51.680;5.976;2023-05-10T06:03:20;69.72;45.61;81.66;;
66888;Laerm;67239;51.680;5.976;2023-05-10T06:05:47;68.74;46.22;79.48;;
66888;Laerm;67239;51.680;5.976;2023-05-10T06:08:15;70.69;49.68;84.83;;
66888;Laerm;67239;51.680;5.976;2023-05-10T06:10:42;72.49;49.01;83.55;;
66888;Laerm;67239;51.680;5.976;2023-05-10T06:13:09;69.31;50.73;80.11;;
66888;Laerm;67239;51.680;5.976;2023-05-10T06:15:36;69.04;46.22;81.28;;
66888;Laerm;67239;51.680;5.976;2023-05-10T06:18:04;70.11;47.57;83.75;;
66888;Laerm;67239;51.680;5.976;2023-05-10T06:20:31;70.00;47.34;83.53;;
66888;Laerm;67239;51.680;5.976;2023-05-10T06:22:58;70.25;50.24;81.81;;
66888;Laerm;67239;51.680;5.976;2023-05-10T06:25:25;69.94;49.17;84.21;;
66888;Laerm;67239;51.680;5.976;2023-05-10T06:27:52;69.19;47.80;82.32;;
66888;Laerm;67239;51.680;5.976;2023-05-10T06:30:27;67.98;46.08;77.83;;
66888;Laerm;67239;51.680;5.976;2023-05-10T06:32:54;69.13;44.54;81.13;;
66888;Laerm;67239;51.680;5.976;2023-05-10T06:35:22;71.26;48.44;83.27;;
66888;Laerm;67239;51.680;5.976;2023-05-10T06:37:50;68.67;47.33;78.81;;
66888;Laerm;67239;51.680;5.976;2023-05-10T06:40:18;70.25;46.40;81.24;;
66888;Laerm;67239;51.680;5.976;2023-05-10T06:42:46;70.95;47.80;84.56;;
66888;Laerm;67239;51.680;5.976;2023-05-10T06:45:14;67.57;45.69;80.75;;
66888;Laerm;67239;51.680;5.976;2023-05-10T06:47:42;70.88;51.63;83.78;;
66888;Laerm;67239;51.680;5.976;2023-05-10T06:50:11;70.14;44.46;82.12;;
66888;Laerm;67239;51.680;5.976;2023-05-10T06:52:38;66.88;45.29;80.16;;
66888;Laerm;67239;51.680;5.976;2023-05-10T06:55:06;67.61;45.86;81.14;;
66888;Laerm;67239;51.680;5.976;2023-05-10T06:57:33;71.18;46.96;84.94;;
66888;Laerm;67239;51.680;5.976;2023-05-10T07:00:02;58.81;41.93;73.31;;
66888;Laerm;67239;51.680;5.976;2023-05-10T07:02:31;68.37;45.19;82.40;;
66888;Laerm;67239;51.680;5.976;2023-05-10T07:04:58;66.80;46.92;80.53;;
66888;Laerm;67239;51.680;5.976;2023-05-10T07:07:40;65.28;44.60;80.77;;
66888;Laerm;67239;51.680;5.976;2023-05-10T07:10:08;68.45;46.49;83.19;;
66888;Laerm;67239;51.680;5.976;2023-05-10T07:12:35;65.50;43.70;76.65;;
66888;Laerm;67239;51.680;5.976;2023-05-10T07:15:03;68.52;48.93;83.38;;
66888;Laerm;67239;51.680;5.976;2023-05-10T07:17:31;69.15;48.10;83.24;;
66888;Laerm;67239;51.680;5.976;2023-05-10T07:19:58;68.25;41.27;83.19;;
66888;Laerm;67239;51.680;5.976;2023-05-10T07:22:25;67.30;44.39;81.77;;
66888;Laerm;67239;51.680;5.976;2023-05-10T07:24:52;67.69;44.26;80.08;;
66888;Laerm;67239;51.680;5.976;2023-05-10T07:27:19;65.68;42.81;79.77;;
66888;Laerm;67239;51.680;5.976;2023-05-10T07:29:46;66.31;41.29;79.87;;
66888;Laerm;67239;51.680;5.976;2023-05-10T07:32:13;68.29;45.68;80.78;;
66888;Laerm;67239;51.680;5.976;2023-05-10T07:34:40;67.43;43.44;82.41;;
66888;Laerm;67239;51.680;5.976;2023-05-10T07:37:08;64.80;40.26;77.80;;
66888;Laerm;67239;51.680;5.976;2023-05-10T07:39:35;68.03;47.94;78.60;;
66888;Laerm;67239;51.680;5.976;2023-05-10T07:42:02;69.28;42.22;82.87;;
66888;Laerm;67239;51.680;5.976;2023-05-10T07:44:29;69.52;45.95;81.00;;
66888;Laerm;67239;51.680;5.976;2023-05-10T07:46:56;69.18;43.12;81.87;;
66888;Laerm;67239;51.680;5.976;2023-05-10T07:49:23;70.24;43.50;83.14;;
66888;Laerm;67239;51.680;5.976;2023-05-10T07:51:51;69.79;45.42;83.80;;
66888;Laerm;67239;51.680;5.976;2023-05-10T07:54:18;67.49;44.56;82.48;;
66888;Laerm;67239;51.680;5.976;2023-05-10T07:56:45;70.15;48.25;84.16;;
66888;Laerm;67239;51.680;5.976;2023-05-10T07:59:17;70.95;46.58;86.34;;
66888;Laerm;67239;51.680;5.976;2023-05-10T08:01:44;69.99;47.66;82.50;;
66888;Laerm;67239;51.680;5.976;2023-05-10T08:04:12;68.32;43.33;79.49;;
66888;Laerm;67239;51.680;5.976;2023-05-10T08:06:39;69.38;43.11;81.90;;
66888;Laerm;67239;51.680;5.976;2023-05-10T08:09:08;68.84;43.95;79.97;;
66888;Laerm;67239;51.680;5.976;2023-05-10T08:11:35;71.10;44.86;84.27;;
66888;Laerm;67239;51.680;5.976;2023-05-10T08:14:02;71.36;47.82;85.22;;
66888;Laerm;67239;51.680;5.976;2023-05-10T08:16:29;70.24;50.17;84.51;;
66888;Laerm;67239;51.680;5.976;2023-05-10T08:18:56;66.57;42.16;77.50;;
66888;Laerm;67239;51.680;5.976;2023-05-10T08:21:23;65.36;42.40;80.44;;
66888;Laerm;67239;51.680;5.976;2023-05-10T08:23:50;67.66;44.62;82.29;;
66888;Laerm;67239;51.680;5.976;2023-05-10T08:26:17;67.48;43.41;80.19;;
66888;Laerm;67239;51.680;5.976;2023-05-10T08:28:44;68.95;43.80;81.98;;
66888;Laerm;67239;51.680;5.976;2023-05-10T08:31:11;68.81;40.21;83.70;;
66888;Laerm;67239;51.680;5.976;2023-05-10T08:33:38;69.35;44.34;80.79;;
66888;Laerm;67239;51.680;5.976;2023-05-10T08:36:08;65.30;41.56;77.63;;
66888;Laerm;67239;51.680;5.976;2023-05-10T08:38:37;67.16;43.42;80.35;;
66888;Laerm;67239;51.680;5.976;2023-05-10T08:41:05;69.29;41.10;81.69;;
66888;Laerm;67239;51.680;5.976;2023-05-10T08:43:35;68.65;41.83;82.20;;
66888;Laerm;67239;51.680;5.976;2023-05-10T08:46:05;69.78;47.03;82.29;;
66888;Laerm;67239;51.680;5.976;2023-05-10T08:48:34;67.55;42.64;81.78;;
66888;Laerm;67239;51.680;5.976;2023-05-10T08:51:03;69.01;40.18;82.54;;
66888;Laerm;67239;51.680;5.976;2023-05-10T08:53:33;68.82;45.51;82.00;;
66888;Laerm;67239;51.680;5.976;2023-05-10T08:56:02;69.29;46.99;85.29;;
66888;Laerm;67239;51.680;5.976;2023-05-10T08:58:31;67.86;43.77;79.57;;
66888;Laerm;67239;51.680;5.976;2023-05-10T09:00:59;69.36;47.24;83.55;;
66888;Laerm;67239;51.680;5.976;2023-05-10T09:03:27;69.36;47.84;80.75;;
66888;Laerm;67239;51.680;5.976;2023-05-10T09:05:55;68.16;46.36;84.57;;
66888;Laerm;67239;51.680;5.976;2023-05-10T09:08:25;68.35;48.22;81.05;;
66888;Laerm;67239;51.680;5.976;2023-05-10T09:10:54;67.31;46.14;80.10;;
66888;Laerm;67239;51.680;5.976;2023-05-10T09:13:23;69.66;46.23;82.43;;
66888;Laerm;67239;51.680;5.976;2023-05-10T09:15:51;71.95;51.12;83.49;;
66888;Laerm;67239;51.680;5.976;2023-05-10T09:18:19;69.08;47.63;83.93;;
66888;Laerm;67239;51.680;5.976;2023-05-10T09:20:46;68.63;48.25;83.70;;
66888;Laerm;67239;51.680;5.976;2023-05-10T09:23:13;69.09;51.03;82.87;;
66888;Laerm;67239;51.680;5.976;2023-05-10T09:25:43;66.77;46.83;81.30;;
66888;Laerm;67239;51.680;5.976;2023-05-10T09:28:11;67.05;47.24;78.67;;
66888;Laerm;67239;51.680;5.976;2023-05-10T09:30:38;72.53;47.94;87.09;;
66888;Laerm;67239;51.680;5.976;2023-05-10T09:33:05;67.73;46.24;80.49;;
66888;Laerm;67239;51.680;5.976;2023-05-10T09:35:33;70.57;46.81;84.99;;
66888;Laerm;67239;51.680;5.976;2023-05-10T09:38:04;68.33;46.04;83.71;;
66888;Laerm;67239;51.680;5.976;2023-05-10T09:40:31;67.38;45.29;81.34;;
66888;Laerm;67239;51.680;5.976;2023-05-10T09:43:07;68.40;42.71;83.52;;
66888;Laerm;67239;51.680;5.976;2023-05-10T09:45:35;69.87;43.58;80.49;;
66888;Laerm;67239;51.680;5.976;2023-05-10T09:48:05;66.29;44.78;79.33;;
66888;Laerm;67239;51.680;5.976;2023-05-10T09:50:33;72.32;47.47;87.76;;
66888;Laerm;67239;51.680;5.976;2023-05-10T09:53:03;67.22;45.11;80.57;;
66888;Laerm;67239;51.680;5.976;2023-05-10T09:55:44;69.85;47.55;81.47;;
66888;Laerm;67239;51.680;5.976;2023-05-10T09:58:13;69.44;47.51;82.81;;
66888;Laerm;67239;51.680;5.976;2023-05-10T10:00:47;66.73;45.53;81.28;;
66888;Laerm;67239;51.680;5.976;2023-05-10T10:03:23;68.85;44.53;80.67;;
66888;Laerm;67239;51.680;5.976;2023-05-10T10:05:51;68.82;46.17;84.73;;
66888;Laerm;67239;51.680;5.976;2023-05-10T10:08:20;69.21;46.52;83.06;;
66888;Laerm;67239;51.680;5.976;2023-05-10T10:10:47;68.97;46.22;78.80;;
66888;Laerm;67239;51.680;5.976;2023-05-10T10:13:19;69.26;45.15;82.99;;
66888;Laerm;67239;51.680;5.976;2023-05-10T10:15:47;67.23;43.46;79.45;;
66888;Laerm;67239;51.680;5.976;2023-05-10T10:18:19;70.52;48.34;84.49;;
66888;Laerm;67239;51.680;5.976;2023-05-10T10:20:50;65.39;46.00;80.44;;
66888;Laerm;67239;51.680;5.976;2023-05-10T10:23:17;66.22;45.43;78.23;;
66888;Laerm;67239;51.680;5.976;2023-05-10T10:25:45;70.70;44.26;84.99;;
66888;Laerm;67239;51.680;5.976;2023-05-10T10:28:35;67.74;49.07;81.23;;
66888;Laerm;67239;51.680;5.976;2023-05-10T10:31:39;69.76;46.39;83.20;;
66888;Laerm;67239;51.680;5.976;2023-05-10T10:34:10;68.49;45.47;83.67;;
66888;Laerm;67239;51.680;5.976;2023-05-10T10:36:44;65.82;44.16;78.47;;
66888;Laerm;67239;51.680;5.976;2023-05-10T10:39:12;70.77;53.05;83.64;;
66888;Laerm;67239;51.680;5.976;2023-05-10T10:41:53;68.70;46.69;84.82;;
66888;Laerm;67239;51.680;5.976;2023-05-10T10:52:40;67.71;43.18;80.22;;
66888;Laerm;67239;51.680;5.976;2023-05-10T10:55:18;69.22;43.86;83.77;;
66888;Laerm;67239;51.680;5.976;2023-05-10T10:57:53;69.25;42.99;84.78;;
66888;Laerm;67239;51.680;5.976;2023-05-10T11:00:35;68.44;42.62;81.16;;
66888;Laerm;67239;51.680;5.976;2023-05-10T11:03:10;67.93;43.02;85.68;;
66888;Laerm;67239;51.680;5.976;2023-05-10T11:05:41;67.62;42.97;82.15;;
66888;Laerm;67239;51.680;5.976;2023-05-10T11:08:42;67.68;41.15;81.01;;
66888;Laerm;67239;51.680;5.976;2023-05-10T11:11:14;66.85;43.83;80.43;;
66888;Laerm;67239;51.680;5.976;2023-05-10T11:13:46;65.16;44.78;81.24;;
66888;Laerm;67239;51.680;5.976;2023-05-10T11:16:23;67.55;43.66;78.52;;
66888;Laerm;67239;51.680;5.976;2023-05-10T11:18:59;69.74;47.80;85.26;;
66888;Laerm;67239;51.680;5.976;2023-05-10T11:21:30;67.92;47.84;81.27;;
66888;Laerm;67239;51.680;5.976;2023-05-10T11:24:00;68.74;45.67;79.33;;
66888;Laerm;67239;51.680;5.976;2023-05-10T11:26:34;68.63;47.20;81.39;;
66888;Laerm;67239;51.680;5.976;2023-05-10T11:29:01;70.16;45.98;84.18;;
66888;Laerm;67239;51.680;5.976;2023-05-10T11:31:29;67.68;42.75;79.87;;
66888;Laerm;67239;51.680;5.976;2023-05-10T11:33:59;72.95;48.56;88.23;;
66888;Laerm;67239;51.680;5.976;2023-05-10T11:36:33;69.77;48.42;84.68;;
66888;Laerm;67239;51.680;5.976;2023-05-10T11:39:00;70.41;49.18;82.16;;
66888;Laerm;67239;51.680;5.976;2023-05-10T11:41:29;68.79;44.61;81.95;;
66888;Laerm;67239;51.680;5.976;2023-05-10T11:43:57;67.66;50.54;79.97;;
66888;Laerm;67239;51.680;5.976;2023-05-10T11:46:27;70.60;49.92;84.34;;
66888;Laerm;67239;51.680;5.976;2023-05-10T11:49:01;69.10;51.71;80.65;;
66888;Laerm;67239;51.680;5.976;2023-05-10T11:51:34;69.96;45.15;81.31;;
66888;Laerm;67239;51.680;5.976;2023-05-10T11:54:08;69.09;47.98;81.94;;
66888;Laerm;67239;51.680;5.976;2023-05-10T11:56:38;68.42;45.49;81.20;;
66888;Laerm;67239;51.680;5.976;2023-05-10T11:59:05;72.13;49.82;91.55;;
66888;Laerm;67239;51.680;5.976;2023-05-10T12:01:34;69.85;45.65;85.60;;
66888;Laerm;67239;51.680;5.976;2023-05-10T12:04:02;70.10;47.33;82.97;;
66888;Laerm;67239;51.680;5.976;2023-05-10T12:06:32;71.34;46.45;85.08;;
66888;Laerm;67239;51.680;5.976;2023-05-10T12:09:07;70.80;45.37;83.32;;
66888;Laerm;67239;51.680;5.976;2023-05-10T12:11:40;72.14;46.21;95.36;;
66888;Laerm;67239;51.680;5.976;2023-05-10T12:14:10;66.90;42.04;78.76;;
66888;Laerm;67239;51.680;5.976;2023-05-10T12:16:38;71.47;42.35;84.80;;
66888;Laerm;67239;51.680;5.976;2023-05-10T12:19:05;69.12;43.27;81.60;;
66888;Laerm;67239;51.680;5.976;2023-05-10T12:21:32;69.79;49.00;83.98;;
66888;Laerm;67239;51.680;5.976;2023-05-10T12:24:03;68.30;43.81;82.38;;
66888;Laerm;67239;51.680;5.976;2023-05-10T12:26:31;67.69;45.73;77.94;;
66888;Laerm;67239;51.680;5.976;2023-05-10T12:29:16;66.19;40.33;80.19;;
66888;Laerm;67239;51.680;5.976;2023-05-10T12:31:56;70.90;43.43;89.34;;
66888;Laerm;67239;51.680;5.976;2023-05-10T12:36:53;65.70;41.41;78.40;;
66888;Laerm;67239;51.680;5.976;2023-05-10T12:39:20;65.08;42.10;77.81;;
66888;Laerm;67239;51.680;5.976;2023-05-10T12:41:47;68.63;39.32;82.58;;
66888;Laerm;67239;51.680;5.976;2023-05-10T12:44:14;68.34;39.81;80.74;;
66888;Laerm;67239;51.680;5.976;2023-05-10T12:46:41;66.78;42.30;81.16;;
66888;Laerm;67239;51.680;5.976;2023-05-10T12:49:08;70.48;41.89;81.44;;
66888;Laerm;67239;51.680;5.976;2023-05-10T12:51:35;67.94;46.54;81.78;;
66888;Laerm;67239;51.680;5.976;2023-05-10T12:54:03;67.68;43.94;81.74;;
66888;Laerm;67239;51.680;5.976;2023-05-10T12:56:30;69.69;47.26;83.14;;
66888;Laerm;67239;51.680;5.976;2023-05-10T12:58:57;67.31;45.09;83.18;;
66888;Laerm;67239;51.680;5.976;2023-05-10T13:01:24;68.16;48.29;81.60;;
66888;Laerm;67239;51.680;5.976;2023-05-10T13:03:51;70.28;47.47;82.20;;
66888;Laerm;67239;51.680;5.976;2023-05-10T13:06:18;68.97;44.88;79.24;;
66888;Laerm;67239;51.680;5.976;2023-05-10T13:08:45;68.25;44.20;82.76;;
66888;Laerm;67239;51.680;5.976;2023-05-10T13:11:12;71.87;54.63;86.62;;
66888;Laerm;67239;51.680;5.976;2023-05-10T13:13:43;71.81;51.15;84.88;;
66888;Laerm;67239;51.680;5.976;2023-05-10T13:16:10;68.29;47.94;79.37;;
66888;Laerm;67239;51.680;5.976;2023-05-10T13:18:37;72.96;49.83;86.40;;
66888;Laerm;67239;51.680;5.976;2023-05-10T13:21:04;66.53;46.62;79.44;;
66888;Laerm;67239;51.680;5.976;2023-05-10T13:23:32;69.60;48.02;82.25;;
66888;Laerm;67239;51.680;5.976;2023-05-10T13:25:59;70.04;47.57;85.45;;
66888;Laerm;67239;51.680;5.976;2023-05-10T13:28:26;69.06;50.02;81.62;;
66888;Laerm;67239;51.680;5.976;2023-05-10T13:30:53;72.81;51.02;84.53;;
66888;Laerm;67239;51.680;5.976;2023-05-10T13:33:20;69.72;47.50;82.50;;
66888;Laerm;67239;51.680;5.976;2023-05-10T13:35:47;69.68;51.91;83.65;;
66888;Laerm;67239;51.680;5.976;2023-05-10T13:38:14;72.49;49.60;85.80;;
66888;Laerm;67239;51.680;5.976;2023-05-10T13:40:41;67.12;46.29;77.97;;
66888;Laerm;67239;51.680;5.976;2023-05-10T13:43:08;69.69;42.90;81.78;;
66888;Laerm;67239;51.680;5.976;2023-05-10T13:45:35;69.67;48.43;80.60;;
66888;Laerm;67239;51.680;5.976;2023-05-10T13:48:02;70.40;50.93;83.48;;
66888;Laerm;67239;51.680;5.976;2023-05-10T13:50:29;70.03;47.39;81.57;;
66888;Laerm;67239;51.680;5.976;2023-05-10T13:52:56;69.62;48.30;80.72;;
66888;Laerm;67239;51.680;5.976;2023-05-10T13:55:23;67.79;41.19;79.08;;
66888;Laerm;67239;51.680;5.976;2023-05-10T13:57:50;72.32;47.59;86.30;;
66888;Laerm;67239;51.680;5.976;2023-05-10T14:00:18;72.08;53.41;82.70;;
66888;Laerm;67239;51.680;5.976;2023-05-10T14:02:45;70.15;47.52;81.47;;
66888;Laerm;67239;51.680;5.976;2023-05-10T14:05:12;72.23;53.40;83.41;;
66888;Laerm;67239;51.680;5.976;2023-05-10T14:07:39;69.68;48.72;80.74;;
66888;Laerm;67239;51.680;5.976;2023-05-10T14:10:08;71.01;48.63;82.65;;
66888;Laerm;67239;51.680;5.976;2023-05-10T14:12:35;69.95;47.43;81.36;;
66888;Laerm;67239;51.680;5.976;2023-05-10T14:15:02;69.38;48.06;80.39;;
66888;Laerm;67239;51.680;5.976;2023-05-10T14:17:29;64.25;45.43;80.32;;
66888;Laerm;67239;51.680;5.976;2023-05-10T14:19:56;68.81;48.25;79.20;;